Grete Maersk — OYCY2 — position and weather

sailwx.info

Track history (hours):
 
Tides and Currents Weather Stations Pressure Air Temp Water Temp Dewpoint Dewpoint Depression Visibility Wind Speed Wind Dir Waves Ship Positions

Grete Maersk

Last reported at 2018-Feb-16 20:53 UTC. Time now 2018-Feb-20 05:44 UTC.
Position N 36°49' W 075°47'.

MMSI: 218824136.

Date/timePositionNaut miles runAvg speedWind from/ knotsBaromVisibWave heightAir tempDewpointWater temp
2018-Feb-16 20:53N 36°49' W 075°47'5 9.8
2018-Feb-16 20:25N 36°52' W 075°52'4 9.6
2018-Feb-16 20:00N 36°55' W 075°56'5 9.9
2018-Feb-16 19:30N 36°57' W 076°01'714.8
2018-Feb-16 19:01N 36°59' W 076°10'713.8
2018-Feb-16 18:30N 36°59' W 076°19'5 9.4
2018-Feb-16 18:00N 36°55' W 076°20'2 4.9
2018-Feb-16 17:30N 36°52' W 076°21'0 0.3
2018-Feb-16 16:59N 36°53' W 076°21'0 0.0
2018-Feb-16 16:29N 36°53' W 076°21'0 0.0
2018-Feb-16 15:59N 36°53' W 076°21'0 0.0
2018-Feb-16 15:29N 36°53' W 076°21'0 0.0
2018-Feb-16 14:59N 36°53' W 076°21'0 0.0
2018-Feb-16 14:29N 36°53' W 076°21'0 0.0
2018-Feb-16 13:59N 36°53' W 076°21'0 0.0
2018-Feb-16 13:29N 36°53' W 076°21'0 0.0
2018-Feb-16 12:59N 36°53' W 076°21'0 0.0
2018-Feb-16 12:29N 36°53' W 076°21'0 0.0
2018-Feb-16 11:59N 36°53' W 076°21'0 0.0
2018-Feb-16 11:29N 36°53' W 076°21'0 0.0
2018-Feb-16 10:59N 36°53' W 076°21'0 0.0
2018-Feb-16 10:29N 36°53' W 076°21'0 0.0
2018-Feb-16 09:59N 36°53' W 076°21'0 0.0
2018-Feb-16 09:29N 36°53' W 076°21'0 0.0
2018-Feb-16 08:59N 36°53' W 076°21'0 0.0
2018-Feb-16 08:29N 36°53' W 076°21'0 0.0
2018-Feb-16 07:59N 36°53' W 076°21'0 0.0
2018-Feb-16 07:29N 36°53' W 076°21'0 0.0
2018-Feb-16 06:59N 36°53' W 076°21'0 0.0
2018-Feb-16 06:29N 36°53' W 076°21'0 0.0
2018-Feb-16 05:59N 36°53' W 076°21'0 0.0
2018-Feb-16 05:29N 36°53' W 076°21'0 0.0
2018-Feb-16 04:59N 36°53' W 076°21'0 0.0
2018-Feb-16 04:23N 36°53' W 076°21'0 0.0
2018-Feb-16 03:59N 36°53' W 076°21'0 0.0
2018-Feb-16 03:26N 36°53' W 076°21'0 0.0
2018-Feb-16 02:56N 36°53' W 076°21'0 0.0
2018-Feb-16 02:26N 36°53' W 076°21'0 0.0
2018-Feb-16 01:56N 36°53' W 076°21'0 0.0
2018-Feb-16 01:29N 36°53' W 076°21'0 0.0
2018-Feb-16 00:59N 36°53' W 076°21'0 0.0
2018-Feb-16 00:29N 36°53' W 076°21'0 0.0
2018-Feb-15 23:59N 36°53' W 076°21'0 0.0
2018-Feb-15 23:11N 36°53' W 076°21'0 0.0
2018-Feb-15 22:59N 36°53' W 076°21'0 0.0
2018-Feb-15 22:29N 36°53' W 076°21'0 0.0
2018-Feb-15 21:56N 36°53' W 076°21'0 0.0
2018-Feb-15 21:29N 36°53' W 076°21'0 0.0
2018-Feb-15 20:59N 36°53' W 076°21'0 0.0
2018-Feb-15 20:26N 36°53' W 076°21'0 0.0
2018-Feb-15 19:56N 36°53' W 076°21'0 0.0
2018-Feb-15 19:26N 36°53' W 076°21'0 0.0
2018-Feb-15 18:56N 36°53' W 076°21'0 0.0
2018-Feb-15 18:26N 36°53' W 076°21'0 0.0
2018-Feb-15 17:56N 36°53' W 076°21'0 0.0
2018-Feb-15 17:29N 36°53' W 076°21'0 0.0
2018-Feb-15 16:59N 36°53' W 076°21'1 1.8
2018-Feb-15 16:30N 36°53' W 076°20'4 7.1
2018-Feb-15 16:00N 36°57' W 076°20'4 7.9
2018-Feb-15 15:30N 36°60' W 076°17'714.4
2018-Feb-15 15:00N 36°59' W 076°09'714.8
2018-Feb-15 14:30N 36°57' W 075°60'4 7.9
2018-Feb-15 14:00N 36°55' W 075°55'3 5.8
2018-Feb-15 13:31N 36°53' W 075°53'4 7.2
2018-Feb-15 12:59N 36°51' W 075°49'  
2018-Feb-07 09:30N 40°25' W 073°49'4 8.8
2018-Feb-07 09:00N 40°29' W 073°53'612.6
2018-Feb-07 08:30N 40°31' W 074°00'9 8.8
2018-Feb-07 07:30N 40°39' W 074°07'2 3.0
2018-Feb-07 07:00N 40°39' W 074°09'1 2.2
2018-Feb-07 06:30N 40°40' W 074°08'1 1.0
2018-Feb-07 06:00N 40°41' W 074°09'0 0.5
2018-Feb-07 05:25N 40°41' W 074°09'0 0.0
2018-Feb-07 04:58N 40°41' W 074°09'0 0.0
2018-Feb-07 04:28N 40°41' W 074°09'0 0.0
2018-Feb-07 03:55N 40°41' W 074°09'0 0.0
2018-Feb-07 03:28N 40°41' W 074°09'0 0.0
2018-Feb-07 02:55N 40°41' W 074°09'0 0.0
2018-Feb-07 02:28N 40°41' W 074°09'0 0.0
2018-Feb-07 01:58N 40°41' W 074°09'0 0.0
2018-Feb-07 01:28N 40°41' W 074°09'0 0.0
2018-Feb-07 00:58N 40°41' W 074°09'0 0.0
2018-Feb-07 00:28N 40°41' W 074°09'0 0.0
2018-Feb-06 23:58N 40°41' W 074°09'0 0.0
2018-Feb-06 23:28N 40°41' W 074°09'0 0.0
2018-Feb-06 22:58N 40°41' W 074°09'0 0.0
2018-Feb-06 22:28N 40°41' W 074°09'0 0.0
2018-Feb-06 21:58N 40°41' W 074°09'0 0.0
2018-Feb-06 21:25N 40°41' W 074°09'0 0.0
2018-Feb-06 20:58N 40°41' W 074°09'  
Track history (hours):
 
Tides and Currents Weather Stations Pressure Air Temp Water Temp Dewpoint Dewpoint Depression Visibility Wind Speed Wind Dir Waves Ship Positions

Grete Maersk

Last reported at 2018-Feb-16 20:53 UTC. Time now 2018-Feb-20 05:44 UTC.
Position N 36°49' W 075°47'.

MMSI: 218824136.

Date/timePositionNaut miles runAvg speedWind from/ knotsBaromVisibWave heightAir tempDewpointWater temp
2018-Feb-16 20:53N 36°49' W 075°47'5 9.8
2018-Feb-16 20:25N 36°52' W 075°52'4 9.6
2018-Feb-16 20:00N 36°55' W 075°56'5 9.9
2018-Feb-16 19:30N 36°57' W 076°01'714.8
2018-Feb-16 19:01N 36°59' W 076°10'713.8
2018-Feb-16 18:30N 36°59' W 076°19'5 9.4
2018-Feb-16 18:00N 36°55' W 076°20'2 4.9
2018-Feb-16 17:30N 36°52' W 076°21'0 0.3
2018-Feb-16 16:59N 36°53' W 076°21'0 0.0
2018-Feb-16 16:29N 36°53' W 076°21'0 0.0
2018-Feb-16 15:59N 36°53' W 076°21'0 0.0
2018-Feb-16 15:29N 36°53' W 076°21'0 0.0
2018-Feb-16 14:59N 36°53' W 076°21'0 0.0
2018-Feb-16 14:29N 36°53' W 076°21'0 0.0
2018-Feb-16 13:59N 36°53' W 076°21'0 0.0
2018-Feb-16 13:29N 36°53' W 076°21'0 0.0
2018-Feb-16 12:59N 36°53' W 076°21'0 0.0
2018-Feb-16 12:29N 36°53' W 076°21'0 0.0
2018-Feb-16 11:59N 36°53' W 076°21'0 0.0
2018-Feb-16 11:29N 36°53' W 076°21'0 0.0
2018-Feb-16 10:59N 36°53' W 076°21'0 0.0
2018-Feb-16 10:29N 36°53' W 076°21'0 0.0
2018-Feb-16 09:59N 36°53' W 076°21'0 0.0
2018-Feb-16 09:29N 36°53' W 076°21'0 0.0
2018-Feb-16 08:59N 36°53' W 076°21'0 0.0
2018-Feb-16 08:29N 36°53' W 076°21'0 0.0
2018-Feb-16 07:59N 36°53' W 076°21'0 0.0
2018-Feb-16 07:29N 36°53' W 076°21'0 0.0
2018-Feb-16 06:59N 36°53' W 076°21'0 0.0
2018-Feb-16 06:29N 36°53' W 076°21'0 0.0
2018-Feb-16 05:59N 36°53' W 076°21'0 0.0
2018-Feb-16 05:29N 36°53' W 076°21'0 0.0
2018-Feb-16 04:59N 36°53' W 076°21'0 0.0
2018-Feb-16 04:23N 36°53' W 076°21'0 0.0
2018-Feb-16 03:59N 36°53' W 076°21'0 0.0
2018-Feb-16 03:26N 36°53' W 076°21'0 0.0
2018-Feb-16 02:56N 36°53' W 076°21'0 0.0
2018-Feb-16 02:26N 36°53' W 076°21'0 0.0
2018-Feb-16 01:56N 36°53' W 076°21'0 0.0
2018-Feb-16 01:29N 36°53' W 076°21'0 0.0
2018-Feb-16 00:59N 36°53' W 076°21'0 0.0
2018-Feb-16 00:29N 36°53' W 076°21'0 0.0
2018-Feb-15 23:59N 36°53' W 076°21'0 0.0
2018-Feb-15 23:11N 36°53' W 076°21'0 0.0
2018-Feb-15 22:59N 36°53' W 076°21'0 0.0
2018-Feb-15 22:29N 36°53' W 076°21'0 0.0
2018-Feb-15 21:56N 36°53' W 076°21'0 0.0
2018-Feb-15 21:29N 36°53' W 076°21'0 0.0
2018-Feb-15 20:59N 36°53' W 076°21'0 0.0
2018-Feb-15 20:26N 36°53' W 076°21'0 0.0
2018-Feb-15 19:56N 36°53' W 076°21'0 0.0
2018-Feb-15 19:26N 36°53' W 076°21'0 0.0
2018-Feb-15 18:56N 36°53' W 076°21'0 0.0
2018-Feb-15 18:26N 36°53' W 076°21'0 0.0
2018-Feb-15 17:56N 36°53' W 076°21'0 0.0
2018-Feb-15 17:29N 36°53' W 076°21'0 0.0
2018-Feb-15 16:59N 36°53' W 076°21'1 1.8
2018-Feb-15 16:30N 36°53' W 076°20'4 7.1
2018-Feb-15 16:00N 36°57' W 076°20'4 7.9
2018-Feb-15 15:30N 36°60' W 076°17'714.4
2018-Feb-15 15:00N 36°59' W 076°09'714.8
2018-Feb-15 14:30N 36°57' W 075°60'4 7.9
2018-Feb-15 14:00N 36°55' W 075°55'3 5.8
2018-Feb-15 13:31N 36°53' W 075°53'4 7.2
2018-Feb-15 12:59N 36°51' W 075°49'  
2018-Feb-07 09:30N 40°25' W 073°49'4 8.8
2018-Feb-07 09:00N 40°29' W 073°53'612.6
2018-Feb-07 08:30N 40°31' W 074°00'9 8.8
2018-Feb-07 07:30N 40°39' W 074°07'2 3.0
2018-Feb-07 07:00N 40°39' W 074°09'1 2.2
2018-Feb-07 06:30N 40°40' W 074°08'1 1.0
2018-Feb-07 06:00N 40°41' W 074°09'0 0.5
2018-Feb-07 05:25N 40°41' W 074°09'0 0.0
2018-Feb-07 04:58N 40°41' W 074°09'0 0.0
2018-Feb-07 04:28N 40°41' W 074°09'0 0.0
2018-Feb-07 03:55N 40°41' W 074°09'0 0.0
2018-Feb-07 03:28N 40°41' W 074°09'0 0.0
2018-Feb-07 02:55N 40°41' W 074°09'0 0.0
2018-Feb-07 02:28N 40°41' W 074°09'0 0.0
2018-Feb-07 01:58N 40°41' W 074°09'0 0.0
2018-Feb-07 01:28N 40°41' W 074°09'0 0.0
2018-Feb-07 00:58N 40°41' W 074°09'0 0.0
2018-Feb-07 00:28N 40°41' W 074°09'0 0.0
2018-Feb-06 23:58N 40°41' W 074°09'0 0.0
2018-Feb-06 23:28N 40°41' W 074°09'0 0.0
2018-Feb-06 22:58N 40°41' W 074°09'0 0.0
2018-Feb-06 22:28N 40°41' W 074°09'0 0.0
2018-Feb-06 21:58N 40°41' W 074°09'0 0.0
2018-Feb-06 21:25N 40°41' W 074°09'0 0.0
2018-Feb-06 20:58N 40°41' W 074°09'  

Dump ship's entire track history